sensor_id;sensor_type;location;lat;lon;timestamp;temperature;humidity
25504;DHT22;13410;52.114;5.718;2023-04-24T00:01:49;13.70;99.90
25504;DHT22;13410;52.114;5.718;2023-04-24T00:04:15;13.70;99.90
25504;DHT22;13410;52.114;5.718;2023-04-24T00:06:42;13.60;99.90
25504;DHT22;13410;52.114;5.718;2023-04-24T00:09:09;13.70;99.90
25504;DHT22;13410;52.114;5.718;2023-04-24T00:11:37;13.60;99.90
25504;DHT22;13410;52.114;5.718;2023-04-24T00:14:03;13.60;99.90
25504;DHT22;13410;52.114;5.718;2023-04-24T00:16:28;13.50;99.90
25504;DHT22;13410;52.114;5.718;2023-04-24T00:18:54;13.50;99.90
25504;DHT22;13410;52.114;5.718;2023-04-24T00:21:20;13.60;99.90
25504;DHT22;13410;52.114;5.718;2023-04-24T00:23:47;13.70;99.90
25504;DHT22;13410;52.114;5.718;2023-04-24T00:26:12;13.70;99.90
25504;DHT22;13410;52.114;5.718;2023-04-24T00:28:38;13.90;99.90
25504;DHT22;13410;52.114;5.718;2023-04-24T00:31:04;13.90;99.90
25504;DHT22;13410;52.114;5.718;2023-04-24T00:33:30;13.90;99.90
25504;DHT22;13410;52.114;5.718;2023-04-24T00:35:55;13.80;99.90
25504;DHT22;13410;52.114;5.718;2023-04-24T00:38:21;13.80;99.90
25504;DHT22;13410;52.114;5.718;2023-04-24T00:40:47;13.80;99.90
25504;DHT22;13410;52.114;5.718;2023-04-24T00:43:15;13.90;99.90
25504;DHT22;13410;52.114;5.718;2023-04-24T00:45:40;13.80;99.90
25504;DHT22;13410;52.114;5.718;2023-04-24T00:48:06;13.80;99.90
25504;DHT22;13410;52.114;5.718;2023-04-24T00:50:32;13.80;99.90
25504;DHT22;13410;52.114;5.718;2023-04-24T00:52:58;13.70;99.90
25504;DHT22;13410;52.114;5.718;2023-04-24T00:55:24;13.80;99.90
25504;DHT22;13410;52.114;5.718;2023-04-24T00:57:51;13.80;99.90
25504;DHT22;13410;52.114;5.718;2023-04-24T01:00:17;13.70;99.90
25504;DHT22;13410;52.114;5.718;2023-04-24T01:02:44;13.90;99.90
25504;DHT22;13410;52.114;5.718;2023-04-24T01:05:14;13.90;99.90
25504;DHT22;13410;52.114;5.718;2023-04-24T01:07:41;13.80;99.90
25504;DHT22;13410;52.114;5.718;2023-04-24T01:10:11;13.90;99.90
25504;DHT22;13410;52.114;5.718;2023-04-24T01:12:37;14.00;99.90
25504;DHT22;13410;52.114;5.718;2023-04-24T01:15:03;14.10;99.90
25504;DHT22;13410;52.114;5.718;2023-04-24T01:17:29;14.10;99.90
25504;DHT22;13410;52.114;5.718;2023-04-24T01:19:55;14.20;99.90
25504;DHT22;13410;52.114;5.718;2023-04-24T01:22:22;14.20;99.90
25504;DHT22;13410;52.114;5.718;2023-04-24T01:24:48;14.20;99.90
25504;DHT22;13410;52.114;5.718;2023-04-24T01:27:14;14.00;99.90
25504;DHT22;13410;52.114;5.718;2023-04-24T01:29:40;13.90;99.90
25504;DHT22;13410;52.114;5.718;2023-04-24T01:32:06;14.00;99.90
25504;DHT22;13410;52.114;5.718;2023-04-24T01:34:32;14.10;99.90
25504;DHT22;13410;52.114;5.718;2023-04-24T01:36:58;14.10;99.90
25504;DHT22;13410;52.114;5.718;2023-04-24T01:39:23;14.00;99.90
25504;DHT22;13410;52.114;5.718;2023-04-24T01:41:51;14.30;99.90
25504;DHT22;13410;52.114;5.718;2023-04-24T01:44:18;14.40;99.90
25504;DHT22;13410;52.114;5.718;2023-04-24T01:46:43;14.50;99.90
25504;DHT22;13410;52.114;5.718;2023-04-24T01:49:09;14.40;99.90
25504;DHT22;13410;52.114;5.718;2023-04-24T01:51:35;14.40;99.90
25504;DHT22;13410;52.114;5.718;2023-04-24T01:54:01;14.40;99.90
25504;DHT22;13410;52.114;5.718;2023-04-24T01:56:29;14.30;99.90
25504;DHT22;13410;52.114;5.718;2023-04-24T01:58:55;14.20;99.90
25504;DHT22;13410;52.114;5.718;2023-04-24T02:01:22;14.30;99.90
25504;DHT22;13410;52.114;5.718;2023-04-24T02:03:48;14.40;99.90
25504;DHT22;13410;52.114;5.718;2023-04-24T02:06:14;14.50;99.90
25504;DHT22;13410;52.114;5.718;2023-04-24T02:08:39;14.30;99.90
25504;DHT22;13410;52.114;5.718;2023-04-24T02:11:05;14.30;99.90
25504;DHT22;13410;52.114;5.718;2023-04-24T02:13:31;14.40;99.90
25504;DHT22;13410;52.114;5.718;2023-04-24T02:15:58;14.30;99.90
25504;DHT22;13410;52.114;5.718;2023-04-24T02:18:24;14.20;99.90
25504;DHT22;13410;52.114;5.718;2023-04-24T02:20:49;14.20;99.90
25504;DHT22;13410;52.114;5.718;2023-04-24T02:23:15;14.30;99.90
25504;DHT22;13410;52.114;5.718;2023-04-24T02:25:40;14.40;99.90
25504;DHT22;13410;52.114;5.718;2023-04-24T02:28:06;14.30;99.90
25504;DHT22;13410;52.114;5.718;2023-04-24T02:30:32;14.30;99.90
25504;DHT22;13410;52.114;5.718;2023-04-24T02:32:57;14.30;99.90
25504;DHT22;13410;52.114;5.718;2023-04-24T02:35:23;14.30;99.90
25504;DHT22;13410;52.114;5.718;2023-04-24T02:37:48;14.40;99.90
25504;DHT22;13410;52.114;5.718;2023-04-24T02:40:14;14.40;99.90
25504;DHT22;13410;52.114;5.718;2023-04-24T02:42:40;14.20;99.90
25504;DHT22;13410;52.114;5.718;2023-04-24T02:45:06;14.20;99.90
25504;DHT22;13410;52.114;5.718;2023-04-24T02:47:31;14.20;99.90
25504;DHT22;13410;52.114;5.718;2023-04-24T02:49:57;14.30;99.90
25504;DHT22;13410;52.114;5.718;2023-04-24T02:52:22;14.30;99.90
25504;DHT22;13410;52.114;5.718;2023-04-24T02:54:48;14.40;99.90
25504;DHT22;13410;52.114;5.718;2023-04-24T02:57:13;14.60;99.90
25504;DHT22;13410;52.114;5.718;2023-04-24T02:59:40;14.70;99.90
25504;DHT22;13410;52.114;5.718;2023-04-24T03:02:05;14.60;99.90
25504;DHT22;13410;52.114;5.718;2023-04-24T03:04:31;14.50;99.90
25504;DHT22;13410;52.114;5.718;2023-04-24T03:06:57;14.40;99.90
25504;DHT22;13410;52.114;5.718;2023-04-24T03:09:23;14.40;99.90
25504;DHT22;13410;52.114;5.718;2023-04-24T03:11:49;14.40;99.90
25504;DHT22;13410;52.114;5.718;2023-04-24T03:14:15;14.30;99.90
25504;DHT22;13410;52.114;5.718;2023-04-24T03:16:41;14.30;99.90
25504;DHT22;13410;52.114;5.718;2023-04-24T03:19:06;14.30;99.90
25504;DHT22;13410;52.114;5.718;2023-04-24T03:21:32;14.20;99.90
25504;DHT22;13410;52.114;5.718;2023-04-24T03:23:58;14.20;99.90
25504;DHT22;13410;52.114;5.718;2023-04-24T03:26:23;14.20;99.90
25504;DHT22;13410;52.114;5.718;2023-04-24T03:28:49;14.30;99.90
25504;DHT22;13410;52.114;5.718;2023-04-24T03:31:14;14.40;99.90
25504;DHT22;13410;52.114;5.718;2023-04-24T03:33:40;14.50;99.90
25504;DHT22;13410;52.114;5.718;2023-04-24T03:36:06;14.50;99.90
25504;DHT22;13410;52.114;5.718;2023-04-24T03:38:32;14.50;99.90
25504;DHT22;13410;52.114;5.718;2023-04-24T03:40:57;14.20;99.90
25504;DHT22;13410;52.114;5.718;2023-04-24T03:43:23;14.20;99.90
25504;DHT22;13410;52.114;5.718;2023-04-24T03:45:49;14.30;99.90
25504;DHT22;13410;52.114;5.718;2023-04-24T03:48:14;14.20;99.90
25504;DHT22;13410;52.114;5.718;2023-04-24T03:50:40;14.30;99.90
25504;DHT22;13410;52.114;5.718;2023-04-24T03:53:05;14.30;99.90
25504;DHT22;13410;52.114;5.718;2023-04-24T03:55:31;14.40;99.90
25504;DHT22;13410;52.114;5.718;2023-04-24T03:57:56;14.40;99.90
25504;DHT22;13410;52.114;5.718;2023-04-24T04:00:22;14.40;99.90
25504;DHT22;13410;52.114;5.718;2023-04-24T04:02:47;14.40;99.90
25504;DHT22;13410;52.114;5.718;2023-04-24T04:05:13;14.50;99.90
25504;DHT22;13410;52.114;5.718;2023-04-24T04:07:39;14.60;99.90
25504;DHT22;13410;52.114;5.718;2023-04-24T04:10:05;14.50;99.90
25504;DHT22;13410;52.114;5.718;2023-04-24T04:12:32;14.50;99.90
25504;DHT22;13410;52.114;5.718;2023-04-24T04:14:57;14.60;99.90
25504;DHT22;13410;52.114;5.718;2023-04-24T04:17:23;14.50;99.90
25504;DHT22;13410;52.114;5.718;2023-04-24T04:19:49;14.50;99.90
25504;DHT22;13410;52.114;5.718;2023-04-24T04:22:14;14.40;99.90
25504;DHT22;13410;52.114;5.718;2023-04-24T04:24:40;14.50;99.90
25504;DHT22;13410;52.114;5.718;2023-04-24T04:27:06;14.30;99.90
25504;DHT22;13410;52.114;5.718;2023-04-24T04:29:32;14.40;99.90
25504;DHT22;13410;52.114;5.718;2023-04-24T04:31:58;14.40;99.90
25504;DHT22;13410;52.114;5.718;2023-04-24T04:34:23;14.50;99.90
25504;DHT22;13410;52.114;5.718;2023-04-24T04:36:49;14.50;99.90
25504;DHT22;13410;52.114;5.718;2023-04-24T04:39:15;14.50;99.90
25504;DHT22;13410;52.114;5.718;2023-04-24T04:41:41;14.60;99.90
25504;DHT22;13410;52.114;5.718;2023-04-24T04:44:07;14.60;99.90
25504;DHT22;13410;52.114;5.718;2023-04-24T04:46:34;14.50;99.90
25504;DHT22;13410;52.114;5.718;2023-04-24T04:49:00;14.50;99.90
25504;DHT22;13410;52.114;5.718;2023-04-24T04:51:27;14.60;99.90
25504;DHT22;13410;52.114;5.718;2023-04-24T04:53:53;14.60;99.90
25504;DHT22;13410;52.114;5.718;2023-04-24T04:56:18;14.60;99.90
25504;DHT22;13410;52.114;5.718;2023-04-24T04:58:44;14.60;99.90
25504;DHT22;13410;52.114;5.718;2023-04-24T05:01:09;14.70;99.90
25504;DHT22;13410;52.114;5.718;2023-04-24T05:03:35;14.60;99.90
25504;DHT22;13410;52.114;5.718;2023-04-24T05:06:01;14.70;99.90
25504;DHT22;13410;52.114;5.718;2023-04-24T05:08:27;14.60;99.90
25504;DHT22;13410;52.114;5.718;2023-04-24T05:10:53;14.60;99.90
25504;DHT22;13410;52.114;5.718;2023-04-24T05:13:18;14.70;99.90
25504;DHT22;13410;52.114;5.718;2023-04-24T05:15:44;14.70;99.90
25504;DHT22;13410;52.114;5.718;2023-04-24T05:18:10;14.70;99.90
25504;DHT22;13410;52.114;5.718;2023-04-24T05:20:35;14.70;99.90
25504;DHT22;13410;52.114;5.718;2023-04-24T05:23:01;14.70;99.90
25504;DHT22;13410;52.114;5.718;2023-04-24T05:25:27;14.80;99.90
25504;DHT22;13410;52.114;5.718;2023-04-24T05:27:52;14.80;99.90
25504;DHT22;13410;52.114;5.718;2023-04-24T05:30:19;14.90;99.90
25504;DHT22;13410;52.114;5.718;2023-04-24T05:32:45;14.80;99.90
25504;DHT22;13410;52.114;5.718;2023-04-24T05:35:11;14.80;99.90
25504;DHT22;13410;52.114;5.718;2023-04-24T05:37:37;14.70;99.90
25504;DHT22;13410;52.114;5.718;2023-04-24T05:40:03;14.80;99.90
25504;DHT22;13410;52.114;5.718;2023-04-24T05:42:30;14.80;99.90
25504;DHT22;13410;52.114;5.718;2023-04-24T05:44:56;14.90;99.90
25504;DHT22;13410;52.114;5.718;2023-04-24T05:47:22;15.00;99.90
25504;DHT22;13410;52.114;5.718;2023-04-24T05:49:48;15.00;99.90
25504;DHT22;13410;52.114;5.718;2023-04-24T05:52:13;15.10;99.90
25504;DHT22;13410;52.114;5.718;2023-04-24T05:54:39;15.10;99.90
25504;DHT22;13410;52.114;5.718;2023-04-24T05:57:05;15.10;99.90
25504;DHT22;13410;52.114;5.718;2023-04-24T05:59:35;15.10;99.90
25504;DHT22;13410;52.114;5.718;2023-04-24T06:02:00;15.10;99.90
25504;DHT22;13410;52.114;5.718;2023-04-24T06:04:26;15.20;99.90
25504;DHT22;13410;52.114;5.718;2023-04-24T06:06:51;15.20;99.90
25504;DHT22;13410;52.114;5.718;2023-04-24T06:09:24;15.10;99.90
25504;DHT22;13410;52.114;5.718;2023-04-24T06:11:50;15.10;99.90
25504;DHT22;13410;52.114;5.718;2023-04-24T06:14:18;15.10;99.90
25504;DHT22;13410;52.114;5.718;2023-04-24T06:16:43;15.00;99.90
25504;DHT22;13410;52.114;5.718;2023-04-24T06:19:09;15.00;99.90
25504;DHT22;13410;52.114;5.718;2023-04-24T06:21:35;15.00;99.90
25504;DHT22;13410;52.114;5.718;2023-04-24T06:24:00;15.10;99.90
25504;DHT22;13410;52.114;5.718;2023-04-24T06:26:26;15.20;99.90
25504;DHT22;13410;52.114;5.718;2023-04-24T06:28:52;15.20;99.90
25504;DHT22;13410;52.114;5.718;2023-04-24T06:31:19;15.00;99.90
25504;DHT22;13410;52.114;5.718;2023-04-24T06:33:45;15.10;99.90
25504;DHT22;13410;52.114;5.718;2023-04-24T06:36:12;15.10;99.90
25504;DHT22;13410;52.114;5.718;2023-04-24T06:38:37;15.00;99.90
25504;DHT22;13410;52.114;5.718;2023-04-24T06:41:03;15.00;99.90
25504;DHT22;13410;52.114;5.718;2023-04-24T06:43:31;14.90;99.90
25504;DHT22;13410;52.114;5.718;2023-04-24T06:45:57;14.90;99.90
25504;DHT22;13410;52.114;5.718;2023-04-24T06:48:24;14.80;99.90
25504;DHT22;13410;52.114;5.718;2023-04-24T06:50:49;14.90;99.90
25504;DHT22;13410;52.114;5.718;2023-04-24T06:53:15;14.70;99.90
25504;DHT22;13410;52.114;5.718;2023-04-24T06:55:41;14.70;99.90
25504;DHT22;13410;52.114;5.718;2023-04-24T06:58:06;14.50;99.90
25504;DHT22;13410;52.114;5.718;2023-04-24T07:00:32;14.40;99.90
25504;DHT22;13410;52.114;5.718;2023-04-24T07:02:57;14.00;99.90
25504;DHT22;13410;52.114;5.718;2023-04-24T07:05:23;14.00;99.90
25504;DHT22;13410;52.114;5.718;2023-04-24T07:07:49;13.80;99.90
25504;DHT22;13410;52.114;5.718;2023-04-24T07:10:15;13.90;99.90
25504;DHT22;13410;52.114;5.718;2023-04-24T07:12:41;13.90;99.90
25504;DHT22;13410;52.114;5.718;2023-04-24T07:15:10;13.70;99.90
25504;DHT22;13410;52.114;5.718;2023-04-24T07:17:36;13.60;99.90
25504;DHT22;13410;52.114;5.718;2023-04-24T07:20:04;13.40;99.90
25504;DHT22;13410;52.114;5.718;2023-04-24T07:22:30;12.70;99.90
25504;DHT22;13410;52.114;5.718;2023-04-24T07:24:55;12.10;99.90
25504;DHT22;13410;52.114;5.718;2023-04-24T07:27:21;11.70;99.90
25504;DHT22;13410;52.114;5.718;2023-04-24T07:29:46;11.60;99.90
25504;DHT22;13410;52.114;5.718;2023-04-24T07:32:12;11.70;99.90
25504;DHT22;13410;52.114;5.718;2023-04-24T07:34:37;11.50;99.90
25504;DHT22;13410;52.114;5.718;2023-04-24T07:37:03;11.30;99.90
25504;DHT22;13410;52.114;5.718;2023-04-24T07:39:28;11.20;99.90
25504;DHT22;13410;52.114;5.718;2023-04-24T07:41:54;11.50;99.90
25504;DHT22;13410;52.114;5.718;2023-04-24T07:44:20;11.50;99.90
25504;DHT22;13410;52.114;5.718;2023-04-24T07:46:45;11.50;99.90
25504;DHT22;13410;52.114;5.718;2023-04-24T07:49:11;11.50;99.90
25504;DHT22;13410;52.114;5.718;2023-04-24T07:51:36;11.50;99.90
25504;DHT22;13410;52.114;5.718;2023-04-24T07:54:04;11.50;99.90
25504;DHT22;13410;52.114;5.718;2023-04-24T07:56:33;11.70;99.90
25504;DHT22;13410;52.114;5.718;2023-04-24T07:58:59;11.60;99.90
25504;DHT22;13410;52.114;5.718;2023-04-24T08:01:25;11.50;99.90
25504;DHT22;13410;52.114;5.718;2023-04-24T08:03:51;11.40;99.90
25504;DHT22;13410;52.114;5.718;2023-04-24T08:06:16;11.40;99.90
25504;DHT22;13410;52.114;5.718;2023-04-24T08:08:42;11.40;99.90
25504;DHT22;13410;52.114;5.718;2023-04-24T08:11:08;11.50;99.90
25504;DHT22;13410;52.114;5.718;2023-04-24T08:13:33;11.80;99.90
25504;DHT22;13410;52.114;5.718;2023-04-24T08:15:59;11.90;99.90
25504;DHT22;13410;52.114;5.718;2023-04-24T08:18:24;11.70;99.90
25504;DHT22;13410;52.114;5.718;2023-04-24T08:20:50;11.80;99.90
25504;DHT22;13410;52.114;5.718;2023-04-24T08:23:15;11.90;99.90
25504;DHT22;13410;52.114;5.718;2023-04-24T08:25:41;12.20;99.90
25504;DHT22;13410;52.114;5.718;2023-04-24T08:28:09;12.30;99.90
25504;DHT22;13410;52.114;5.718;2023-04-24T08:30:35;12.30;99.90
25504;DHT22;13410;52.114;5.718;2023-04-24T08:33:00;12.40;99.90
25504;DHT22;13410;52.114;5.718;2023-04-24T08:35:26;12.40;99.90
25504;DHT22;13410;52.114;5.718;2023-04-24T08:37:53;12.20;99.90
25504;DHT22;13410;52.114;5.718;2023-04-24T08:40:26;12.30;99.90
25504;DHT22;13410;52.114;5.718;2023-04-24T08:42:54;12.40;99.90
25504;DHT22;13410;52.114;5.718;2023-04-24T08:45:21;12.50;99.90
25504;DHT22;13410;52.114;5.718;2023-04-24T08:47:47;12.70;99.90
25504;DHT22;13410;52.114;5.718;2023-04-24T08:50:14;12.40;99.90
25504;DHT22;13410;52.114;5.718;2023-04-24T08:52:42;12.20;99.90
25504;DHT22;13410;52.114;5.718;2023-04-24T08:55:08;12.20;99.90
25504;DHT22;13410;52.114;5.718;2023-04-24T08:57:33;11.90;99.90
25504;DHT22;13410;52.114;5.718;2023-04-24T09:00:01;11.80;99.90
25504;DHT22;13410;52.114;5.718;2023-04-24T09:02:27;11.90;99.90
25504;DHT22;13410;52.114;5.718;2023-04-24T09:04:56;11.70;99.90
25504;DHT22;13410;52.114;5.718;2023-04-24T09:07:24;11.40;99.90
25504;DHT22;13410;52.114;5.718;2023-04-24T09:09:51;11.30;99.90
25504;DHT22;13410;52.114;5.718;2023-04-24T09:12:17;11.30;99.90
25504;DHT22;13410;52.114;5.718;2023-04-24T09:14:44;11.50;99.90
25504;DHT22;13410;52.114;5.718;2023-04-24T09:17:11;11.50;99.90
25504;DHT22;13410;52.114;5.718;2023-04-24T09:19:37;11.50;99.90
25504;DHT22;13410;52.114;5.718;2023-04-24T09:22:06;11.60;99.90
25504;DHT22;13410;52.114;5.718;2023-04-24T09:24:33;11.60;99.90
25504;DHT22;13410;52.114;5.718;2023-04-24T09:26:59;11.60;99.90
25504;DHT22;13410;52.114;5.718;2023-04-24T09:29:26;11.80;99.90
25504;DHT22;13410;52.114;5.718;2023-04-24T09:31:52;11.90;99.90
25504;DHT22;13410;52.114;5.718;2023-04-24T09:34:22;12.20;99.90
25504;DHT22;13410;52.114;5.718;2023-04-24T09:36:49;12.50;99.90
25504;DHT22;13410;52.114;5.718;2023-04-24T09:39:16;12.60;99.90
25504;DHT22;13410;52.114;5.718;2023-04-24T09:41:53;12.70;99.90
25504;DHT22;13410;52.114;5.718;2023-04-24T09:44:20;12.70;99.90
25504;DHT22;13410;52.114;5.718;2023-04-24T09:46:53;12.70;99.90
25504;DHT22;13410;52.114;5.718;2023-04-24T09:49:27;12.90;99.90
25504;DHT22;13410;52.114;5.718;2023-04-24T09:52:03;12.90;99.90
25504;DHT22;13410;52.114;5.718;2023-04-24T09:54:28;12.70;99.90
25504;DHT22;13410;52.114;5.718;2023-04-24T09:56:55;12.90;99.90
25504;DHT22;13410;52.114;5.718;2023-04-24T09:59:22;13.20;99.90
25504;DHT22;13410;52.114;5.718;2023-04-24T10:01:47;13.40;99.90
25504;DHT22;13410;52.114;5.718;2023-04-24T10:04:19;13.10;99.90
25504;DHT22;13410;52.114;5.718;2023-04-24T10:06:46;13.00;99.90
25504;DHT22;13410;52.114;5.718;2023-04-24T10:09:12;12.90;99.90
25504;DHT22;13410;52.114;5.718;2023-04-24T10:11:42;12.90;99.90
25504;DHT22;13410;52.114;5.718;2023-04-24T10:14:11;13.20;99.90
25504;DHT22;13410;52.114;5.718;2023-04-24T10:16:38;13.40;99.90
25504;DHT22;13410;52.114;5.718;2023-04-24T10:19:04;13.70;99.90
25504;DHT22;13410;52.114;5.718;2023-04-24T10:21:31;13.80;99.90
25504;DHT22;13410;52.114;5.718;2023-04-24T10:23:56;13.90;99.90
25504;DHT22;13410;52.114;5.718;2023-04-24T10:26:23;14.00;99.90
25504;DHT22;13410;52.114;5.718;2023-04-24T10:28:49;14.20;99.90
25504;DHT22;13410;52.114;5.718;2023-04-24T10:31:15;14.10;99.90
25504;DHT22;13410;52.114;5.718;2023-04-24T10:33:45;14.00;99.90
25504;DHT22;13410;52.114;5.718;2023-04-24T10:36:13;14.20;99.90
25504;DHT22;13410;52.114;5.718;2023-04-24T10:38:41;14.30;99.90
25504;DHT22;13410;52.114;5.718;2023-04-24T10:43:35;14.40;99.90
25504;DHT22;13410;52.114;5.718;2023-04-24T10:46:02;14.30;99.90
25504;DHT22;13410;52.114;5.718;2023-04-24T10:48:28;14.70;99.90
25504;DHT22;13410;52.114;5.718;2023-04-24T10:50:54;15.00;99.90
25504;DHT22;13410;52.114;5.718;2023-04-24T10:53:21;14.80;99.90
25504;DHT22;13410;52.114;5.718;2023-04-24T10:56:12;14.40;99.90
25504;DHT22;13410;52.114;5.718;2023-04-24T11:01:05;14.30;99.90
25504;DHT22;13410;52.114;5.718;2023-04-24T11:03:33;14.70;99.90
25504;DHT22;13410;52.114;5.718;2023-04-24T11:06:08;15.10;99.90
25504;DHT22;13410;52.114;5.718;2023-04-24T11:08:46;15.30;99.90
25504;DHT22;13410;52.114;5.718;2023-04-24T11:11:15;15.30;99.90
25504;DHT22;13410;52.114;5.718;2023-04-24T11:16:51;15.50;99.90
25504;DHT22;13410;52.114;5.718;2023-04-24T11:19:20;15.40;99.90
25504;DHT22;13410;52.114;5.718;2023-04-24T11:22:02;15.00;99.90
25504;DHT22;13410;52.114;5.718;2023-04-24T11:24:49;15.10;99.90
25504;DHT22;13410;52.114;5.718;2023-04-24T11:27:18;15.30;99.90
25504;DHT22;13410;52.114;5.718;2023-04-24T11:32:23;14.40;99.90
25504;DHT22;13410;52.114;5.718;2023-04-24T11:34:57;14.10;99.90
25504;DHT22;13410;52.114;5.718;2023-04-24T11:37:25;14.00;99.90
25504;DHT22;13410;52.114;5.718;2023-04-24T11:39:53;13.80;99.90
25504;DHT22;13410;52.114;5.718;2023-04-24T11:42:20;13.70;99.90
25504;DHT22;13410;52.114;5.718;2023-04-24T11:44:46;13.60;99.90
25504;DHT22;13410;52.114;5.718;2023-04-24T11:47:13;13.80;99.90
25504;DHT22;13410;52.114;5.718;2023-04-24T11:49:39;13.90;99.90
25504;DHT22;13410;52.114;5.718;2023-04-24T11:52:05;13.90;99.90
25504;DHT22;13410;52.114;5.718;2023-04-24T11:54:30;14.20;99.90
25504;DHT22;13410;52.114;5.718;2023-04-24T11:56:56;14.50;99.90
25504;DHT22;13410;52.114;5.718;2023-04-24T11:59:22;14.70;99.90
25504;DHT22;13410;52.114;5.718;2023-04-24T12:01:49;15.00;99.90
25504;DHT22;13410;52.114;5.718;2023-04-24T12:04:16;15.20;99.90
25504;DHT22;13410;52.114;5.718;2023-04-24T12:07:04;15.20;99.90
25504;DHT22;13410;52.114;5.718;2023-04-24T12:09:46;15.50;99.90
25504;DHT22;13410;52.114;5.718;2023-04-24T12:12:16;15.80;99.90
25504;DHT22;13410;52.114;5.718;2023-04-24T12:15:05;15.70;99.90
25504;DHT22;13410;52.114;5.718;2023-04-24T12:17:32;15.70;99.90
25504;DHT22;13410;52.114;5.718;2023-04-24T12:20:00;15.90;99.90
25504;DHT22;13410;52.114;5.718;2023-04-24T12:22:26;16.00;99.90
25504;DHT22;13410;52.114;5.718;2023-04-24T12:24:56;16.40;99.90
25504;DHT22;13410;52.114;5.718;2023-04-24T12:27:22;16.70;99.90
25504;DHT22;13410;52.114;5.718;2023-04-24T12:30:11;16.70;99.90
25504;DHT22;13410;52.114;5.718;2023-04-24T12:32:48;16.40;99.90
25504;DHT22;13410;52.114;5.718;2023-04-24T12:35:19;16.10;99.90
25504;DHT22;13410;52.114;5.718;2023-04-24T12:37:46;15.50;99.90
25504;DHT22;13410;52.114;5.718;2023-04-24T12:40:12;15.10;99.90
25504;DHT22;13410;52.114;5.718;2023-04-24T12:43:01;14.80;99.90
25504;DHT22;13410;52.114;5.718;2023-04-24T12:45:27;14.70;99.90
25504;DHT22;13410;52.114;5.718;2023-04-24T12:47:53;14.60;99.90
25504;DHT22;13410;52.114;5.718;2023-04-24T12:50:19;14.40;99.90
25504;DHT22;13410;52.114;5.718;2023-04-24T12:52:45;14.40;99.90
25504;DHT22;13410;52.114;5.718;2023-04-24T12:55:11;14.50;99.90
25504;DHT22;13410;52.114;5.718;2023-04-24T12:57:38;14.50;99.90
25504;DHT22;13410;52.114;5.718;2023-04-24T13:00:06;14.30;99.90
25504;DHT22;13410;52.114;5.718;2023-04-24T13:02:33;14.20;99.90
25504;DHT22;13410;52.114;5.718;2023-04-24T13:04:59;14.30;99.90
25504;DHT22;13410;52.114;5.718;2023-04-24T13:07:26;14.70;99.90
25504;DHT22;13410;52.114;5.718;2023-04-24T13:09:52;14.90;99.90
25504;DHT22;13410;52.114;5.718;2023-04-24T13:12:18;15.10;99.90
25504;DHT22;13410;52.114;5.718;2023-04-24T13:14:45;15.40;99.90
25504;DHT22;13410;52.114;5.718;2023-04-24T13:17:11;15.50;99.90
25504;DHT22;13410;52.114;5.718;2023-04-24T13:19:39;15.10;99.90
25504;DHT22;13410;52.114;5.718;2023-04-24T13:22:05;15.00;99.90
25504;DHT22;13410;52.114;5.718;2023-04-24T13:24:32;14.80;99.90
25504;DHT22;13410;52.114;5.718;2023-04-24T13:26:58;14.60;99.90
25504;DHT22;13410;52.114;5.718;2023-04-24T13:29:23;14.10;99.90
25504;DHT22;13410;52.114;5.718;2023-04-24T13:31:53;13.70;99.90
25504;DHT22;13410;52.114;5.718;2023-04-24T13:34:26;13.30;99.90
25504;DHT22;13410;52.114;5.718;2023-04-24T13:36:53;13.10;99.90
25504;DHT22;13410;52.114;5.718;2023-04-24T13:39:19;13.10;99.90
25504;DHT22;13410;52.114;5.718;2023-04-24T13:41:45;13.20;99.90
25504;DHT22;13410;52.114;5.718;2023-04-24T13:44:12;13.50;99.90
25504;DHT22;13410;52.114;5.718;2023-04-24T13:46:39;13.90;99.90
25504;DHT22;13410;52.114;5.718;2023-04-24T13:49:04;14.30;99.90
25504;DHT22;13410;52.114;5.718;2023-04-24T13:51:30;14.80;99.90
25504;DHT22;13410;52.114;5.718;2023-04-24T13:53:56;15.20;99.90
25504;DHT22;13410;52.114;5.718;2023-04-24T13:56:22;15.50;99.90
25504;DHT22;13410;52.114;5.718;2023-04-24T13:58:47;15.80;99.90
25504;DHT22;13410;52.114;5.718;2023-04-24T14:01:14;16.00;99.90
25504;DHT22;13410;52.114;5.718;2023-04-24T14:03:41;16.10;99.90
25504;DHT22;13410;52.114;5.718;2023-04-24T14:06:07;16.10;99.90
25504;DHT22;13410;52.114;5.718;2023-04-24T14:08:32;16.10;99.90
25504;DHT22;13410;52.114;5.718;2023-04-24T14:10:58;15.90;99.90
25504;DHT22;13410;52.114;5.718;2023-04-24T14:13:24;16.10;99.90
25504;DHT22;13410;52.114;5.718;2023-04-24T14:15:50;15.80;99.90
25504;DHT22;13410;52.114;5.718;2023-04-24T14:18:16;15.70;99.90
25504;DHT22;13410;52.114;5.718;2023-04-24T14:20:42;15.80;99.90
25504;DHT22;13410;52.114;5.718;2023-04-24T14:23:08;16.00;99.90
25504;DHT22;13410;52.114;5.718;2023-04-24T14:25:33;15.90;99.90
25504;DHT22;13410;52.114;5.718;2023-04-24T14:27:59;15.90;99.90
25504;DHT22;13410;52.114;5.718;2023-04-24T14:30:25;15.80;99.90
25504;DHT22;13410;52.114;5.718;2023-04-24T14:32:50;15.60;99.90
25504;DHT22;13410;52.114;5.718;2023-04-24T14:35:16;15.20;99.90
25504;DHT22;13410;52.114;5.718;2023-04-24T14:37:42;14.90;99.90
25504;DHT22;13410;52.114;5.718;2023-04-24T14:40:08;14.70;99.90
25504;DHT22;13410;52.114;5.718;2023-04-24T14:42:34;14.30;99.90
25504;DHT22;13410;52.114;5.718;2023-04-24T14:45:00;14.40;99.90
25504;DHT22;13410;52.114;5.718;2023-04-24T14:47:26;14.30;99.90
25504;DHT22;13410;52.114;5.718;2023-04-24T14:49:51;14.50;99.90
25504;DHT22;13410;52.114;5.718;2023-04-24T14:52:17;14.70;99.90
25504;DHT22;13410;52.114;5.718;2023-04-24T14:54:43;14.70;99.90
25504;DHT22;13410;52.114;5.718;2023-04-24T14:57:08;14.70;99.90
25504;DHT22;13410;52.114;5.718;2023-04-24T14:59:34;14.70;99.90
25504;DHT22;13410;52.114;5.718;2023-04-24T15:02:00;14.50;99.90
25504;DHT22;13410;52.114;5.718;2023-04-24T15:04:27;14.50;99.90
25504;DHT22;13410;52.114;5.718;2023-04-24T15:06:53;14.60;99.90
25504;DHT22;13410;52.114;5.718;2023-04-24T15:09:20;14.60;99.90
25504;DHT22;13410;52.114;5.718;2023-04-24T15:11:47;14.60;99.90
25504;DHT22;13410;52.114;5.718;2023-04-24T15:14:12;14.30;99.90
25504;DHT22;13410;52.114;5.718;2023-04-24T15:16:38;14.20;99.90
25504;DHT22;13410;52.114;5.718;2023-04-24T15:19:04;14.00;99.90
25504;DHT22;13410;52.114;5.718;2023-04-24T15:21:29;13.80;99.90
25504;DHT22;13410;52.114;5.718;2023-04-24T15:23:56;13.60;99.90
25504;DHT22;13410;52.114;5.718;2023-04-24T15:26:23;13.60;99.90
25504;DHT22;13410;52.114;5.718;2023-04-24T15:28:49;13.70;99.90
25504;DHT22;13410;52.114;5.718;2023-04-24T15:31:14;13.70;99.90
25504;DHT22;13410;52.114;5.718;2023-04-24T15:33:40;13.50;99.90
25504;DHT22;13410;52.114;5.718;2023-04-24T15:36:06;13.50;99.90
25504;DHT22;13410;52.114;5.718;2023-04-24T15:38:32;13.00;99.90